sensor_id;sensor_type;location;lat;lon;timestamp;P1;durP1;ratioP1;P2;durP2;ratioP2
77234;SDS011;66253;50.526;14.974;2023-12-20T00:02:13;9.50;;;4.80;;
77234;SDS011;66253;50.526;14.974;2023-12-20T00:04:41;9.50;;;3.90;;
77234;SDS011;66253;50.526;14.974;2023-12-20T00:07:09;13.20;;;4.90;;
77234;SDS011;66253;50.526;14.974;2023-12-20T00:09:38;9.60;;;4.00;;
77234;SDS011;66253;50.526;14.974;2023-12-20T00:12:06;9.40;;;4.00;;
77234;SDS011;66253;50.526;14.974;2023-12-20T00:14:38;10.90;;;4.30;;
77234;SDS011;66253;50.526;14.974;2023-12-20T00:17:06;9.50;;;4.20;;
77234;SDS011;66253;50.526;14.974;2023-12-20T00:19:34;9.50;;;4.30;;
77234;SDS011;66253;50.526;14.974;2023-12-20T00:22:03;9.70;;;3.60;;
77234;SDS011;66253;50.526;14.974;2023-12-20T00:24:31;8.70;;;3.90;;
77234;SDS011;66253;50.526;14.974;2023-12-20T00:26:59;8.30;;;3.70;;
77234;SDS011;66253;50.526;14.974;2023-12-20T00:29:27;8.80;;;3.60;;
77234;SDS011;66253;50.526;14.974;2023-12-20T00:31:56;8.70;;;4.00;;
77234;SDS011;66253;50.526;14.974;2023-12-20T00:34:24;11.20;;;4.10;;
77234;SDS011;66253;50.526;14.974;2023-12-20T00:36:52;9.90;;;3.90;;
77234;SDS011;66253;50.526;14.974;2023-12-20T00:39:22;10.80;;;3.90;;
77234;SDS011;66253;50.526;14.974;2023-12-20T00:41:51;10.00;;;3.40;;
77234;SDS011;66253;50.526;14.974;2023-12-20T00:44:19;9.70;;;4.50;;
77234;SDS011;66253;50.526;14.974;2023-12-20T00:46:47;7.70;;;3.60;;
77234;SDS011;66253;50.526;14.974;2023-12-20T00:49:16;7.80;;;3.40;;
77234;SDS011;66253;50.526;14.974;2023-12-20T00:51:44;7.10;;;3.50;;
77234;SDS011;66253;50.526;14.974;2023-12-20T00:54:12;8.70;;;3.50;;
77234;SDS011;66253;50.526;14.974;2023-12-20T00:56:41;8.20;;;3.60;;
77234;SDS011;66253;50.526;14.974;2023-12-20T00:59:10;6.90;;;3.20;;
77234;SDS011;66253;50.526;14.974;2023-12-20T01:01:38;7.90;;;3.50;;
77234;SDS011;66253;50.526;14.974;2023-12-20T01:04:06;8.60;;;2.90;;
77234;SDS011;66253;50.526;14.974;2023-12-20T01:06:34;9.00;;;3.70;;
77234;SDS011;66253;50.526;14.974;2023-12-20T01:09:03;8.50;;;3.10;;
77234;SDS011;66253;50.526;14.974;2023-12-20T01:11:31;10.50;;;4.50;;
77234;SDS011;66253;50.526;14.974;2023-12-20T01:13:59;10.20;;;3.80;;
77234;SDS011;66253;50.526;14.974;2023-12-20T01:16:27;8.30;;;3.80;;
77234;SDS011;66253;50.526;14.974;2023-12-20T01:18:56;9.80;;;3.50;;
77234;SDS011;66253;50.526;14.974;2023-12-20T01:21:24;12.30;;;4.90;;
77234;SDS011;66253;50.526;14.974;2023-12-20T01:23:53;11.60;;;5.00;;
77234;SDS011;66253;50.526;14.974;2023-12-20T01:26:21;15.70;;;5.90;;
77234;SDS011;66253;50.526;14.974;2023-12-20T01:28:49;9.90;;;4.60;;
77234;SDS011;66253;50.526;14.974;2023-12-20T01:31:18;12.20;;;4.50;;
77234;SDS011;66253;50.526;14.974;2023-12-20T01:33:49;9.80;;;4.20;;
77234;SDS011;66253;50.526;14.974;2023-12-20T01:36:17;10.20;;;4.10;;
77234;SDS011;66253;50.526;14.974;2023-12-20T01:38:45;8.70;;;4.10;;
77234;SDS011;66253;50.526;14.974;2023-12-20T01:41:15;10.90;;;3.90;;
77234;SDS011;66253;50.526;14.974;2023-12-20T01:43:43;10.80;;;4.90;;
77234;SDS011;66253;50.526;14.974;2023-12-20T01:46:11;9.90;;;4.50;;
77234;SDS011;66253;50.526;14.974;2023-12-20T01:48:40;9.30;;;4.10;;
77234;SDS011;66253;50.526;14.974;2023-12-20T01:51:09;9.60;;;4.10;;
77234;SDS011;66253;50.526;14.974;2023-12-20T01:53:38;8.90;;;3.70;;
77234;SDS011;66253;50.526;14.974;2023-12-20T01:56:08;8.50;;;3.90;;
77234;SDS011;66253;50.526;14.974;2023-12-20T01:58:38;9.00;;;4.30;;
77234;SDS011;66253;50.526;14.974;2023-12-20T02:01:10;11.70;;;4.70;;
77234;SDS011;66253;50.526;14.974;2023-12-20T02:03:38;8.50;;;4.00;;
77234;SDS011;66253;50.526;14.974;2023-12-20T02:06:06;9.20;;;4.20;;
77234;SDS011;66253;50.526;14.974;2023-12-20T02:08:37;9.60;;;4.00;;
77234;SDS011;66253;50.526;14.974;2023-12-20T02:11:06;8.90;;;3.80;;
77234;SDS011;66253;50.526;14.974;2023-12-20T02:13:34;7.60;;;4.30;;
77234;SDS011;66253;50.526;14.974;2023-12-20T02:16:03;8.70;;;4.60;;
77234;SDS011;66253;50.526;14.974;2023-12-20T02:18:32;6.70;;;3.00;;
77234;SDS011;66253;50.526;14.974;2023-12-20T02:21:00;7.60;;;3.50;;
77234;SDS011;66253;50.526;14.974;2023-12-20T02:23:30;7.10;;;3.20;;
77234;SDS011;66253;50.526;14.974;2023-12-20T02:25:58;7.30;;;3.20;;
77234;SDS011;66253;50.526;14.974;2023-12-20T02:28:26;6.30;;;2.70;;
77234;SDS011;66253;50.526;14.974;2023-12-20T02:30:55;7.60;;;3.40;;
77234;SDS011;66253;50.526;14.974;2023-12-20T02:33:24;7.60;;;3.00;;
77234;SDS011;66253;50.526;14.974;2023-12-20T02:35:52;6.60;;;2.80;;
77234;SDS011;66253;50.526;14.974;2023-12-20T02:38:20;6.70;;;2.90;;
77234;SDS011;66253;50.526;14.974;2023-12-20T02:40:48;6.40;;;2.70;;
77234;SDS011;66253;50.526;14.974;2023-12-20T02:43:17;6.70;;;2.50;;
77234;SDS011;66253;50.526;14.974;2023-12-20T02:45:45;15.60;;;6.40;;
77234;SDS011;66253;50.526;14.974;2023-12-20T02:48:14;15.20;;;6.20;;
77234;SDS011;66253;50.526;14.974;2023-12-20T02:50:42;10.20;;;4.70;;
77234;SDS011;66253;50.526;14.974;2023-12-20T02:53:13;13.40;;;4.90;;
77234;SDS011;66253;50.526;14.974;2023-12-20T02:55:41;11.50;;;4.80;;
77234;SDS011;66253;50.526;14.974;2023-12-20T02:58:09;8.40;;;4.00;;
77234;SDS011;66253;50.526;14.974;2023-12-20T03:00:38;9.10;;;4.60;;
77234;SDS011;66253;50.526;14.974;2023-12-20T03:03:06;9.90;;;4.60;;
77234;SDS011;66253;50.526;14.974;2023-12-20T03:05:34;10.50;;;5.00;;
77234;SDS011;66253;50.526;14.974;2023-12-20T03:08:04;9.80;;;4.60;;
77234;SDS011;66253;50.526;14.974;2023-12-20T03:10:32;9.50;;;5.20;;
77234;SDS011;66253;50.526;14.974;2023-12-20T03:13:01;8.70;;;4.00;;
77234;SDS011;66253;50.526;14.974;2023-12-20T03:15:29;7.50;;;3.40;;
77234;SDS011;66253;50.526;14.974;2023-12-20T03:17:57;7.80;;;3.50;;
77234;SDS011;66253;50.526;14.974;2023-12-20T03:20:26;9.70;;;4.10;;
77234;SDS011;66253;50.526;14.974;2023-12-20T03:22:54;8.50;;;4.60;;
77234;SDS011;66253;50.526;14.974;2023-12-20T03:25:22;9.40;;;4.80;;
77234;SDS011;66253;50.526;14.974;2023-12-20T03:27:50;7.90;;;4.80;;
77234;SDS011;66253;50.526;14.974;2023-12-20T03:30:19;10.10;;;5.90;;
77234;SDS011;66253;50.526;14.974;2023-12-20T03:32:47;14.50;;;10.30;;
77234;SDS011;66253;50.526;14.974;2023-12-20T03:35:15;11.90;;;7.40;;
77234;SDS011;66253;50.526;14.974;2023-12-20T03:37:44;10.20;;;5.00;;
77234;SDS011;66253;50.526;14.974;2023-12-20T03:40:12;8.70;;;4.20;;
77234;SDS011;66253;50.526;14.974;2023-12-20T03:42:40;9.80;;;3.90;;
77234;SDS011;66253;50.526;14.974;2023-12-20T03:45:09;7.70;;;3.70;;
77234;SDS011;66253;50.526;14.974;2023-12-20T03:47:37;8.50;;;4.10;;
77234;SDS011;66253;50.526;14.974;2023-12-20T03:50:06;9.70;;;4.50;;
77234;SDS011;66253;50.526;14.974;2023-12-20T03:52:35;8.30;;;5.10;;
77234;SDS011;66253;50.526;14.974;2023-12-20T03:55:03;9.20;;;4.80;;
77234;SDS011;66253;50.526;14.974;2023-12-20T03:57:32;8.90;;;5.80;;
77234;SDS011;66253;50.526;14.974;2023-12-20T04:00:00;9.20;;;4.80;;
77234;SDS011;66253;50.526;14.974;2023-12-20T04:02:31;8.60;;;4.40;;
77234;SDS011;66253;50.526;14.974;2023-12-20T04:04:59;11.00;;;5.70;;
77234;SDS011;66253;50.526;14.974;2023-12-20T04:07:29;11.70;;;5.90;;
77234;SDS011;66253;50.526;14.974;2023-12-20T04:09:57;11.00;;;5.00;;
77234;SDS011;66253;50.526;14.974;2023-12-20T04:12:26;7.80;;;4.00;;
77234;SDS011;66253;50.526;14.974;2023-12-20T04:14:54;8.80;;;3.60;;
77234;SDS011;66253;50.526;14.974;2023-12-20T04:17:23;7.90;;;3.90;;
77234;SDS011;66253;50.526;14.974;2023-12-20T04:19:54;6.80;;;3.50;;
77234;SDS011;66253;50.526;14.974;2023-12-20T04:22:22;7.80;;;3.40;;
77234;SDS011;66253;50.526;14.974;2023-12-20T04:24:51;7.10;;;2.70;;
77234;SDS011;66253;50.526;14.974;2023-12-20T04:27:19;5.40;;;2.60;;
77234;SDS011;66253;50.526;14.974;2023-12-20T04:29:47;6.20;;;2.60;;
77234;SDS011;66253;50.526;14.974;2023-12-20T04:32:15;5.00;;;2.40;;
77234;SDS011;66253;50.526;14.974;2023-12-20T04:34:43;5.90;;;3.00;;
77234;SDS011;66253;50.526;14.974;2023-12-20T04:37:12;6.20;;;2.70;;
77234;SDS011;66253;50.526;14.974;2023-12-20T04:39:40;6.10;;;2.50;;
77234;SDS011;66253;50.526;14.974;2023-12-20T04:42:09;6.60;;;3.40;;
77234;SDS011;66253;50.526;14.974;2023-12-20T04:44:37;7.50;;;3.80;;
77234;SDS011;66253;50.526;14.974;2023-12-20T04:47:05;6.20;;;3.20;;
77234;SDS011;66253;50.526;14.974;2023-12-20T04:49:33;7.70;;;3.10;;
77234;SDS011;66253;50.526;14.974;2023-12-20T04:52:02;6.20;;;3.10;;
77234;SDS011;66253;50.526;14.974;2023-12-20T04:54:30;6.40;;;3.10;;
77234;SDS011;66253;50.526;14.974;2023-12-20T04:56:59;8.90;;;3.10;;
77234;SDS011;66253;50.526;14.974;2023-12-20T04:59:28;8.00;;;3.60;;
77234;SDS011;66253;50.526;14.974;2023-12-20T05:01:56;6.60;;;2.90;;
77234;SDS011;66253;50.526;14.974;2023-12-20T05:04:25;6.50;;;3.10;;
77234;SDS011;66253;50.526;14.974;2023-12-20T05:06:53;5.90;;;2.50;;
77234;SDS011;66253;50.526;14.974;2023-12-20T05:09:21;7.60;;;2.70;;
77234;SDS011;66253;50.526;14.974;2023-12-20T05:11:49;5.20;;;2.30;;
77234;SDS011;66253;50.526;14.974;2023-12-20T05:14:17;6.40;;;3.30;;
77234;SDS011;66253;50.526;14.974;2023-12-20T05:16:46;5.60;;;2.30;;
77234;SDS011;66253;50.526;14.974;2023-12-20T05:19:14;4.90;;;2.30;;
77234;SDS011;66253;50.526;14.974;2023-12-20T05:21:42;5.40;;;2.60;;
77234;SDS011;66253;50.526;14.974;2023-12-20T05:24:10;6.40;;;3.00;;
77234;SDS011;66253;50.526;14.974;2023-12-20T05:26:39;4.40;;;2.20;;
77234;SDS011;66253;50.526;14.974;2023-12-20T05:29:07;5.50;;;2.60;;
77234;SDS011;66253;50.526;14.974;2023-12-20T05:31:35;5.00;;;2.10;;
77234;SDS011;66253;50.526;14.974;2023-12-20T05:34:03;5.80;;;3.30;;
77234;SDS011;66253;50.526;14.974;2023-12-20T05:36:32;5.40;;;2.60;;
77234;SDS011;66253;50.526;14.974;2023-12-20T05:39:00;5.20;;;3.20;;
77234;SDS011;66253;50.526;14.974;2023-12-20T05:41:28;5.70;;;2.60;;
77234;SDS011;66253;50.526;14.974;2023-12-20T05:43:56;4.90;;;2.10;;
77234;SDS011;66253;50.526;14.974;2023-12-20T05:46:25;4.60;;;2.00;;
77234;SDS011;66253;50.526;14.974;2023-12-20T05:48:53;4.30;;;2.20;;
77234;SDS011;66253;50.526;14.974;2023-12-20T05:51:22;5.00;;;2.40;;
77234;SDS011;66253;50.526;14.974;2023-12-20T05:53:50;9.80;;;3.40;;
77234;SDS011;66253;50.526;14.974;2023-12-20T05:56:19;13.50;;;5.20;;
77234;SDS011;66253;50.526;14.974;2023-12-20T05:58:47;10.60;;;3.60;;
77234;SDS011;66253;50.526;14.974;2023-12-20T06:01:15;11.30;;;3.70;;
77234;SDS011;66253;50.526;14.974;2023-12-20T06:03:44;15.40;;;4.90;;
77234;SDS011;66253;50.526;14.974;2023-12-20T06:06:12;13.30;;;4.10;;
77234;SDS011;66253;50.526;14.974;2023-12-20T06:08:40;17.30;;;5.90;;
77234;SDS011;66253;50.526;14.974;2023-12-20T06:11:08;15.20;;;6.00;;
77234;SDS011;66253;50.526;14.974;2023-12-20T06:13:37;13.60;;;6.50;;
77234;SDS011;66253;50.526;14.974;2023-12-20T06:16:06;11.40;;;5.00;;
77234;SDS011;66253;50.526;14.974;2023-12-20T06:18:34;9.90;;;4.80;;
77234;SDS011;66253;50.526;14.974;2023-12-20T06:21:03;9.50;;;3.70;;
77234;SDS011;66253;50.526;14.974;2023-12-20T06:23:31;8.20;;;3.10;;
77234;SDS011;66253;50.526;14.974;2023-12-20T06:25:59;8.40;;;3.70;;
77234;SDS011;66253;50.526;14.974;2023-12-20T06:28:28;9.70;;;3.70;;
77234;SDS011;66253;50.526;14.974;2023-12-20T06:30:56;9.80;;;4.10;;
77234;SDS011;66253;50.526;14.974;2023-12-20T06:33:25;10.40;;;3.90;;
77234;SDS011;66253;50.526;14.974;2023-12-20T06:35:53;12.80;;;4.80;;
77234;SDS011;66253;50.526;14.974;2023-12-20T06:38:21;8.80;;;3.00;;
77234;SDS011;66253;50.526;14.974;2023-12-20T06:40:49;5.00;;;1.50;;
77234;SDS011;66253;50.526;14.974;2023-12-20T06:43:18;5.20;;;1.40;;
77234;SDS011;66253;50.526;14.974;2023-12-20T06:45:46;4.30;;;1.70;;
77234;SDS011;66253;50.526;14.974;2023-12-20T06:48:14;5.80;;;3.00;;
77234;SDS011;66253;50.526;14.974;2023-12-20T06:50:44;5.60;;;1.90;;
77234;SDS011;66253;50.526;14.974;2023-12-20T06:53:13;5.70;;;2.00;;
77234;SDS011;66253;50.526;14.974;2023-12-20T06:55:41;5.30;;;1.90;;
77234;SDS011;66253;50.526;14.974;2023-12-20T06:58:09;8.40;;;4.00;;
77234;SDS011;66253;50.526;14.974;2023-12-20T07:00:38;27.40;;;11.20;;
77234;SDS011;66253;50.526;14.974;2023-12-20T07:03:06;28.60;;;11.80;;
77234;SDS011;66253;50.526;14.974;2023-12-20T07:05:35;31.00;;;13.00;;
77234;SDS011;66253;50.526;14.974;2023-12-20T07:08:04;14.10;;;7.00;;
77234;SDS011;66253;50.526;14.974;2023-12-20T07:10:33;12.60;;;5.40;;
77234;SDS011;66253;50.526;14.974;2023-12-20T07:13:01;13.70;;;6.30;;
77234;SDS011;66253;50.526;14.974;2023-12-20T07:15:30;11.10;;;5.30;;
77234;SDS011;66253;50.526;14.974;2023-12-20T07:17:58;12.60;;;6.80;;
77234;SDS011;66253;50.526;14.974;2023-12-20T07:20:26;11.70;;;6.50;;
77234;SDS011;66253;50.526;14.974;2023-12-20T07:22:54;11.80;;;6.00;;
77234;SDS011;66253;50.526;14.974;2023-12-20T07:25:23;15.90;;;9.10;;
77234;SDS011;66253;50.526;14.974;2023-12-20T07:27:51;11.30;;;6.40;;
77234;SDS011;66253;50.526;14.974;2023-12-20T07:30:19;5.70;;;2.50;;
77234;SDS011;66253;50.526;14.974;2023-12-20T07:32:47;7.20;;;2.80;;
77234;SDS011;66253;50.526;14.974;2023-12-20T07:35:16;7.70;;;3.50;;
77234;SDS011;66253;50.526;14.974;2023-12-20T07:37:44;13.40;;;5.70;;
77234;SDS011;66253;50.526;14.974;2023-12-20T07:40:12;15.30;;;8.30;;
77234;SDS011;66253;50.526;14.974;2023-12-20T07:42:41;9.30;;;5.30;;
77234;SDS011;66253;50.526;14.974;2023-12-20T07:45:09;6.70;;;2.70;;
77234;SDS011;66253;50.526;14.974;2023-12-20T07:47:38;8.50;;;3.50;;
77234;SDS011;66253;50.526;14.974;2023-12-20T07:50:06;6.30;;;2.70;;
77234;SDS011;66253;50.526;14.974;2023-12-20T07:52:34;9.40;;;5.00;;
77234;SDS011;66253;50.526;14.974;2023-12-20T07:55:06;9.50;;;4.50;;
77234;SDS011;66253;50.526;14.974;2023-12-20T07:57:35;6.80;;;3.70;;
77234;SDS011;66253;50.526;14.974;2023-12-20T08:00:03;6.90;;;3.50;;
77234;SDS011;66253;50.526;14.974;2023-12-20T08:02:33;6.50;;;3.40;;
77234;SDS011;66253;50.526;14.974;2023-12-20T08:05:01;5.80;;;2.50;;
77234;SDS011;66253;50.526;14.974;2023-12-20T08:07:30;5.70;;;2.00;;
77234;SDS011;66253;50.526;14.974;2023-12-20T08:09:59;4.20;;;1.70;;
77234;SDS011;66253;50.526;14.974;2023-12-20T08:12:28;4.90;;;1.90;;
77234;SDS011;66253;50.526;14.974;2023-12-20T08:14:56;6.90;;;2.60;;
77234;SDS011;66253;50.526;14.974;2023-12-20T08:17:24;12.70;;;6.50;;
77234;SDS011;66253;50.526;14.974;2023-12-20T08:19:53;26.70;;;14.70;;
77234;SDS011;66253;50.526;14.974;2023-12-20T08:22:21;22.70;;;14.90;;
77234;SDS011;66253;50.526;14.974;2023-12-20T08:24:49;14.80;;;8.40;;
77234;SDS011;66253;50.526;14.974;2023-12-20T08:27:18;11.50;;;7.30;;
77234;SDS011;66253;50.526;14.974;2023-12-20T08:29:46;10.40;;;6.00;;
77234;SDS011;66253;50.526;14.974;2023-12-20T08:32:15;7.80;;;4.10;;
77234;SDS011;66253;50.526;14.974;2023-12-20T08:34:43;6.10;;;2.30;;
77234;SDS011;66253;50.526;14.974;2023-12-20T08:37:13;6.80;;;2.70;;
77234;SDS011;66253;50.526;14.974;2023-12-20T08:39:42;6.60;;;2.30;;
77234;SDS011;66253;50.526;14.974;2023-12-20T08:42:10;9.90;;;3.60;;
77234;SDS011;66253;50.526;14.974;2023-12-20T08:44:38;14.20;;;4.30;;
77234;SDS011;66253;50.526;14.974;2023-12-20T08:47:07;13.90;;;4.40;;
77234;SDS011;66253;50.526;14.974;2023-12-20T08:49:35;14.70;;;5.80;;
77234;SDS011;66253;50.526;14.974;2023-12-20T08:52:04;12.30;;;5.10;;
77234;SDS011;66253;50.526;14.974;2023-12-20T08:54:32;15.80;;;7.10;;
77234;SDS011;66253;50.526;14.974;2023-12-20T08:57:01;16.40;;;8.10;;
77234;SDS011;66253;50.526;14.974;2023-12-20T08:59:29;11.70;;;5.70;;
77234;SDS011;66253;50.526;14.974;2023-12-20T09:01:58;15.90;;;5.30;;
77234;SDS011;66253;50.526;14.974;2023-12-20T09:04:26;9.60;;;4.00;;
77234;SDS011;66253;50.526;14.974;2023-12-20T09:06:54;11.20;;;3.90;;
77234;SDS011;66253;50.526;14.974;2023-12-20T09:09:22;6.90;;;2.80;;
77234;SDS011;66253;50.526;14.974;2023-12-20T09:11:51;5.90;;;2.30;;
77234;SDS011;66253;50.526;14.974;2023-12-20T09:14:19;6.80;;;2.90;;
77234;SDS011;66253;50.526;14.974;2023-12-20T09:16:47;6.70;;;2.30;;
77234;SDS011;66253;50.526;14.974;2023-12-20T09:19:15;6.00;;;2.30;;
77234;SDS011;66253;50.526;14.974;2023-12-20T09:21:44;6.20;;;2.10;;
77234;SDS011;66253;50.526;14.974;2023-12-20T09:24:12;6.10;;;2.00;;
77234;SDS011;66253;50.526;14.974;2023-12-20T09:26:40;7.90;;;2.70;;
77234;SDS011;66253;50.526;14.974;2023-12-20T09:29:08;6.00;;;2.50;;
77234;SDS011;66253;50.526;14.974;2023-12-20T09:31:37;7.40;;;3.80;;
77234;SDS011;66253;50.526;14.974;2023-12-20T09:34:05;11.30;;;4.70;;
77234;SDS011;66253;50.526;14.974;2023-12-20T09:36:33;11.70;;;5.60;;
77234;SDS011;66253;50.526;14.974;2023-12-20T09:39:02;18.80;;;9.10;;
77234;SDS011;66253;50.526;14.974;2023-12-20T09:41:30;9.20;;;4.50;;
77234;SDS011;66253;50.526;14.974;2023-12-20T09:44:04;6.50;;;2.80;;
77234;SDS011;66253;50.526;14.974;2023-12-20T09:46:34;7.20;;;3.40;;
77234;SDS011;66253;50.526;14.974;2023-12-20T09:49:04;8.70;;;4.60;;
77234;SDS011;66253;50.526;14.974;2023-12-20T09:51:33;9.40;;;4.70;;
77234;SDS011;66253;50.526;14.974;2023-12-20T09:54:03;6.50;;;3.10;;
77234;SDS011;66253;50.526;14.974;2023-12-20T09:56:31;8.90;;;4.70;;
77234;SDS011;66253;50.526;14.974;2023-12-20T09:59:00;11.10;;;7.40;;
77234;SDS011;66253;50.526;14.974;2023-12-20T10:01:28;7.70;;;5.40;;
77234;SDS011;66253;50.526;14.974;2023-12-20T10:03:58;6.30;;;4.20;;
77234;SDS011;66253;50.526;14.974;2023-12-20T10:06:31;5.00;;;2.40;;
77234;SDS011;66253;50.526;14.974;2023-12-20T10:08:59;3.50;;;1.70;;
77234;SDS011;66253;50.526;14.974;2023-12-20T10:11:28;4.30;;;1.40;;
77234;SDS011;66253;50.526;14.974;2023-12-20T10:13:59;3.40;;;1.10;;
77234;SDS011;66253;50.526;14.974;2023-12-20T10:16:28;2.90;;;1.10;;
77234;SDS011;66253;50.526;14.974;2023-12-20T10:18:56;3.30;;;1.10;;
77234;SDS011;66253;50.526;14.974;2023-12-20T10:21:25;4.30;;;1.40;;
77234;SDS011;66253;50.526;14.974;2023-12-20T10:23:54;4.10;;;1.90;;
77234;SDS011;66253;50.526;14.974;2023-12-20T10:26:23;3.20;;;1.00;;
77234;SDS011;66253;50.526;14.974;2023-12-20T10:28:52;3.50;;;1.00;;
77234;SDS011;66253;50.526;14.974;2023-12-20T10:31:29;2.60;;;0.80;;
77234;SDS011;66253;50.526;14.974;2023-12-20T10:33:59;2.60;;;0.70;;
77234;SDS011;66253;50.526;14.974;2023-12-20T10:36:29;2.80;;;0.80;;
77234;SDS011;66253;50.526;14.974;2023-12-20T10:38:58;2.90;;;0.80;;
77234;SDS011;66253;50.526;14.974;2023-12-20T10:41:28;5.30;;;1.00;;
77234;SDS011;66253;50.526;14.974;2023-12-20T10:43:57;1.70;;;0.40;;
77234;SDS011;66253;50.526;14.974;2023-12-20T10:46:27;2.80;;;0.70;;
77234;SDS011;66253;50.526;14.974;2023-12-20T10:48:55;2.20;;;0.60;;
77234;SDS011;66253;50.526;14.974;2023-12-20T10:51:24;2.50;;;0.60;;
77234;SDS011;66253;50.526;14.974;2023-12-20T10:53:53;4.00;;;0.90;;
77234;SDS011;66253;50.526;14.974;2023-12-20T10:56:22;54.90;;;11.80;;
77234;SDS011;66253;50.526;14.974;2023-12-20T10:58:51;7.50;;;2.30;;
77234;SDS011;66253;50.526;14.974;2023-12-20T11:01:20;8.10;;;3.10;;
77234;SDS011;66253;50.526;14.974;2023-12-20T11:03:50;10.30;;;3.90;;
77234;SDS011;66253;50.526;14.974;2023-12-20T11:06:22;9.00;;;3.50;;
77234;SDS011;66253;50.526;14.974;2023-12-20T11:09:01;3.90;;;0.90;;
77234;SDS011;66253;50.526;14.974;2023-12-20T11:11:44;3.80;;;1.10;;
77234;SDS011;66253;50.526;14.974;2023-12-20T11:14:23;3.60;;;1.00;;
77234;SDS011;66253;50.526;14.974;2023-12-20T11:17:06;3.40;;;1.20;;
77234;SDS011;66253;50.526;14.974;2023-12-20T11:19:37;4.10;;;1.00;;
77234;SDS011;66253;50.526;14.974;2023-12-20T11:22:27;2.90;;;0.60;;
77234;SDS011;66253;50.526;14.974;2023-12-20T11:24:59;2.90;;;0.70;;
77234;SDS011;66253;50.526;14.974;2023-12-20T11:27:31;2.70;;;0.70;;
77234;SDS011;66253;50.526;14.974;2023-12-20T11:29:59;2.10;;;0.50;;
77234;SDS011;66253;50.526;14.974;2023-12-20T11:32:31;4.10;;;0.60;;
77234;SDS011;66253;50.526;14.974;2023-12-20T11:35:00;2.70;;;0.70;;
77234;SDS011;66253;50.526;14.974;2023-12-20T11:37:43;2.80;;;0.80;;
77234;SDS011;66253;50.526;14.974;2023-12-20T11:40:13;2.40;;;0.60;;
77234;SDS011;66253;50.526;14.974;2023-12-20T11:42:42;5.00;;;0.80;;
77234;SDS011;66253;50.526;14.974;2023-12-20T11:45:12;3.40;;;0.70;;
77234;SDS011;66253;50.526;14.974;2023-12-20T11:47:42;2.60;;;0.60;;
77234;SDS011;66253;50.526;14.974;2023-12-20T11:50:12;3.00;;;1.00;;
77234;SDS011;66253;50.526;14.974;2023-12-20T11:52:40;3.30;;;1.00;;
77234;SDS011;66253;50.526;14.974;2023-12-20T11:55:09;5.70;;;1.10;;
77234;SDS011;66253;50.526;14.974;2023-12-20T11:57:37;3.00;;;0.80;;
77234;SDS011;66253;50.526;14.974;2023-12-20T12:00:07;5.50;;;3.60;;
77234;SDS011;66253;50.526;14.974;2023-12-20T12:02:35;2.90;;;1.00;;
77234;SDS011;66253;50.526;14.974;2023-12-20T12:05:06;2.90;;;0.90;;
77234;SDS011;66253;50.526;14.974;2023-12-20T12:07:35;6.40;;;1.60;;
77234;SDS011;66253;50.526;14.974;2023-12-20T12:10:03;2.60;;;1.30;;
77234;SDS011;66253;50.526;14.974;2023-12-20T12:12:33;2.40;;;1.10;;
77234;SDS011;66253;50.526;14.974;2023-12-20T12:15:01;3.80;;;1.20;;
77234;SDS011;66253;50.526;14.974;2023-12-20T12:17:31;3.80;;;1.60;;
77234;SDS011;66253;50.526;14.974;2023-12-20T12:20:03;2.90;;;1.50;;
77234;SDS011;66253;50.526;14.974;2023-12-20T12:22:32;3.90;;;3.30;;
77234;SDS011;66253;50.526;14.974;2023-12-20T12:25:08;3.10;;;1.40;;
77234;SDS011;66253;50.526;14.974;2023-12-20T12:27:38;2.70;;;0.60;;
77234;SDS011;66253;50.526;14.974;2023-12-20T12:30:08;3.60;;;0.60;;
77234;SDS011;66253;50.526;14.974;2023-12-20T12:32:37;4.00;;;1.90;;
77234;SDS011;66253;50.526;14.974;2023-12-20T12:35:07;2.20;;;0.70;;
77234;SDS011;66253;50.526;14.974;2023-12-20T12:37:36;3.50;;;0.60;;
77234;SDS011;66253;50.526;14.974;2023-12-20T12:40:06;2.20;;;0.50;;
77234;SDS011;66253;50.526;14.974;2023-12-20T12:42:36;2.20;;;0.50;;
77234;SDS011;66253;50.526;14.974;2023-12-20T12:45:05;3.40;;;0.80;;
77234;SDS011;66253;50.526;14.974;2023-12-20T12:47:35;2.80;;;0.50;;
77234;SDS011;66253;50.526;14.974;2023-12-20T12:50:05;2.70;;;1.00;;
77234;SDS011;66253;50.526;14.974;2023-12-20T12:52:33;2.30;;;0.70;;
77234;SDS011;66253;50.526;14.974;2023-12-20T12:55:02;2.50;;;0.50;;
77234;SDS011;66253;50.526;14.974;2023-12-20T12:57:30;3.70;;;1.20;;
77234;SDS011;66253;50.526;14.974;2023-12-20T12:59:59;2.40;;;0.70;;
77234;SDS011;66253;50.526;14.974;2023-12-20T13:02:28;3.10;;;1.00;;
77234;SDS011;66253;50.526;14.974;2023-12-20T13:04:56;3.80;;;0.60;;
77234;SDS011;66253;50.526;14.974;2023-12-20T13:07:24;2.80;;;1.00;;
77234;SDS011;66253;50.526;14.974;2023-12-20T13:09:53;3.80;;;0.70;;
77234;SDS011;66253;50.526;14.974;2023-12-20T13:12:21;3.70;;;2.00;;
77234;SDS011;66253;50.526;14.974;2023-12-20T13:14:49;4.40;;;1.30;;
77234;SDS011;66253;50.526;14.974;2023-12-20T13:17:18;3.50;;;0.90;;
77234;SDS011;66253;50.526;14.974;2023-12-20T13:19:46;3.70;;;1.70;;
77234;SDS011;66253;50.526;14.974;2023-12-20T13:22:14;3.60;;;0.90;;
77234;SDS011;66253;50.526;14.974;2023-12-20T13:24:42;3.00;;;0.70;;
77234;SDS011;66253;50.526;14.974;2023-12-20T13:27:11;3.60;;;0.70;;
77234;SDS011;66253;50.526;14.974;2023-12-20T13:29:39;2.80;;;0.80;;
77234;SDS011;66253;50.526;14.974;2023-12-20T13:32:07;6.70;;;1.00;;
77234;SDS011;66253;50.526;14.974;2023-12-20T13:34:38;3.30;;;0.90;;
77234;SDS011;66253;50.526;14.974;2023-12-20T13:37:06;3.10;;;1.20;;
77234;SDS011;66253;50.526;14.974;2023-12-20T13:39:34;3.10;;;1.20;;
77234;SDS011;66253;50.526;14.974;2023-12-20T13:42:03;5.10;;;2.00;;
77234;SDS011;66253;50.526;14.974;2023-12-20T13:44:31;3.70;;;1.10;;
77234;SDS011;66253;50.526;14.974;2023-12-20T13:47:00;4.50;;;1.30;;
77234;SDS011;66253;50.526;14.974;2023-12-20T13:49:28;8.30;;;1.70;;
77234;SDS011;66253;50.526;14.974;2023-12-20T13:51:57;5.70;;;1.50;;
77234;SDS011;66253;50.526;14.974;2023-12-20T13:54:25;4.40;;;2.60;;
77234;SDS011;66253;50.526;14.974;2023-12-20T13:56:53;7.40;;;2.10;;
77234;SDS011;66253;50.526;14.974;2023-12-20T13:59:22;3.40;;;0.80;;
77234;SDS011;66253;50.526;14.974;2023-12-20T14:01:50;4.70;;;1.90;;
77234;SDS011;66253;50.526;14.974;2023-12-20T14:04:18;5.10;;;2.10;;
77234;SDS011;66253;50.526;14.974;2023-12-20T14:06:47;7.80;;;2.80;;
77234;SDS011;66253;50.526;14.974;2023-12-20T14:09:15;5.80;;;2.50;;
77234;SDS011;66253;50.526;14.974;2023-12-20T14:11:43;7.40;;;3.40;;
77234;SDS011;66253;50.526;14.974;2023-12-20T14:14:12;23.00;;;10.30;;
77234;SDS011;66253;50.526;14.974;2023-12-20T14:16:40;31.50;;;14.20;;
77234;SDS011;66253;50.526;14.974;2023-12-20T14:19:08;16.90;;;8.00;;
77234;SDS011;66253;50.526;14.974;2023-12-20T14:21:36;8.80;;;3.80;;
77234;SDS011;66253;50.526;14.974;2023-12-20T14:24:05;7.10;;;3.20;;
77234;SDS011;66253;50.526;14.974;2023-12-20T14:26:34;4.80;;;1.60;;
77234;SDS011;66253;50.526;14.974;2023-12-20T14:29:02;3.90;;;1.30;;
77234;SDS011;66253;50.526;14.974;2023-12-20T14:31:30;7.60;;;2.20;;
77234;SDS011;66253;50.526;14.974;2023-12-20T14:33:58;9.80;;;4.70;;
77234;SDS011;66253;50.526;14.974;2023-12-20T14:36:27;8.10;;;3.30;;
77234;SDS011;66253;50.526;14.974;2023-12-20T14:38:55;6.20;;;1.90;;
77234;SDS011;66253;50.526;14.974;2023-12-20T14:41:23;4.30;;;1.40;;